Time;durP1;ratioP1;P1;durP2;ratioP2;P2;SDS_P1;SDS_P2;PMS_P1;PMS_P2;Temp;Humidity;BMP_temperature;BMP_pressure;BME280_temperature;BME280_humidity;BME280_pressure;Samples;Min_cycle;Max_cycle;Signal;HPM_P1;HPM_P2
2023/10/09 00:01:51;;;;;;;0.20;0.00;;;;;;;5.26;61.89;101691.66;5048584;28;20077;-72
2023/10/09 00:04:17;;;;;;;1.48;0.10;;;;;;;5.25;61.70;101695.09;5044450;28;20740;-72
2023/10/09 00:06:45;;;;;;;0.40;0.00;;;;;;;5.14;61.94;101677.63;5045383;28;20561;-72
2023/10/09 00:09:32;;;;;;;0.90;0.10;;;;;;;5.25;61.87;101684.72;5045646;28;20524;-71
2023/10/09 00:12:00;;;;;;;0.95;0.10;;;;;;;5.24;62.05;101688.19;5046948;28;20421;-72
2023/10/09 00:14:33;;;;;;;1.05;0.10;;;;;;;5.25;62.00;101684.72;5044739;28;20059;-71
2023/10/09 00:17:17;;;;;;;0.65;0.08;;;;;;;5.22;62.05;101676.91;5043524;28;20045;-72
2023/10/09 00:19:47;;;;;;;1.65;0.10;;;;;;;5.24;61.92;101678.69;5043327;28;20045;-72
2023/10/09 00:22:25;;;;;;;0.03;0.00;;;;;;;5.25;61.93;101679.56;5045329;28;20036;-72
2023/10/09 00:25:10;;;;;;;0.30;0.10;;;;;;;5.24;61.90;101677.81;5048545;28;20132;-73
2023/10/09 00:27:39;;;;;;;0.30;0.10;;;;;;;5.22;62.13;101672.59;5045452;28;20056;-73
2023/10/09 00:30:11;;;;;;;0.05;0.00;;;;;;;5.25;62.03;101671.78;5047392;28;20068;-73
2023/10/09 00:32:50;;;;;;;0.20;0.00;;;;;;;5.21;62.17;101667.38;5043801;28;20045;-72
2023/10/09 00:38:22;;;;;;;0.47;0.10;;;;;;;5.23;62.20;101663.09;4991152;28;20049;-72
2023/10/09 00:41:04;;;;;;;1.45;0.08;;;;;;;5.21;62.33;101662.19;5042030;28;20094;-72
2023/10/09 00:43:31;;;;;;;0.20;0.05;;;;;;;5.21;62.27;101665.69;5046508;28;20473;-73
2023/10/09 00:46:12;;;;;;;0.22;0.00;;;;;;;5.17;62.25;101656.97;5050731;28;20044;-73
2023/10/09 00:48:40;;;;;;;5.50;0.00;;;;;;;5.21;62.68;101662.19;5040363;28;20049;-73
2023/10/09 00:51:16;;;;;;;0.25;0.10;;;;;;;5.21;62.51;101657.91;5048110;28;20041;-72
2023/10/09 00:53:45;;;;;;;0.30;0.10;;;;;;;5.19;62.49;101650.09;5037873;28;20033;-73
2023/10/09 00:56:28;;;;;;;0.20;0.10;;;;;;;5.21;62.54;101649.25;5055523;28;20624;-72
2023/10/09 00:59:00;;;;;;;0.10;0.00;;;;;;;5.20;62.64;101648.38;5048338;28;20052;-71
2023/10/09 01:01:34;;;;;;;1.08;0.08;;;;;;;5.16;62.74;101644.88;5043690;28;20414;-73
2023/10/09 01:04:12;;;;;;;1.75;0.00;;;;;;;5.18;62.60;101638.00;5047678;28;20432;-72
2023/10/09 01:06:44;;;;;;;0.20;0.00;;;;;;;5.18;62.59;101638.00;5049541;28;20123;-73
2023/10/09 01:09:13;;;;;;;0.13;0.10;;;;;;;5.18;62.79;101637.13;5046492;28;20584;-73
2023/10/09 01:11:50;;;;;;;0.17;0.00;;;;;;;5.17;62.63;101636.22;5049666;28;20044;-74
2023/10/09 01:14:21;;;;;;;0.20;0.00;;;;;;;5.17;62.70;101631.06;5049283;28;20675;-72
2023/10/09 01:16:53;;;;;;;1.10;0.00;;;;;;;5.17;62.86;101633.66;5046769;28;20072;-71
2023/10/09 01:19:23;;;;;;;0.80;0.05;;;;;;;5.15;63.03;101627.59;5049670;28;20502;-72
2023/10/09 01:21:51;;;;;;;0.03;0.00;;;;;;;5.15;62.95;101625.00;5049635;28;20048;-73
2023/10/09 01:24:22;;;;;;;1.20;0.00;;;;;;;5.14;63.02;101625.81;5044672;28;20123;-73
2023/10/09 01:26:49;;;;;;;0.10;0.00;;;;;;;5.13;63.11;101618.03;5050409;28;20055;-73
2023/10/09 01:29:19;;;;;;;0.52;0.47;;;;;;;5.11;63.09;101615.41;5048510;28;20484;-72
2023/10/09 01:31:54;;;;;;;0.47;0.20;;;;;;;5.10;63.22;101607.63;5052395;28;20051;-74
2023/10/09 01:34:24;;;;;;;1.45;0.05;;;;;;;5.08;63.18;101605.00;5050206;28;20634;-74
2023/10/09 01:36:55;;;;;;;0.40;0.00;;;;;;;5.03;63.13;101591.09;5047579;28;20060;-72
2023/10/09 01:39:26;;;;;;;1.88;0.05;;;;;;;5.04;63.32;101591.97;5048747;28;20048;-70
2023/10/09 01:41:58;;;;;;;0.75;0.00;;;;;;;5.01;63.58;101587.63;5048940;28;20132;-71
2023/10/09 01:44:34;;;;;;;0.30;0.00;;;;;;;5.00;63.34;101585.88;5047903;28;20119;-71
2023/10/09 01:47:06;;;;;;;0.50;0.00;;;;;;;4.99;63.30;101578.09;5050436;28;20137;-70
2023/10/09 01:49:35;;;;;;;0.57;0.10;;;;;;;4.96;63.67;101586.69;5056517;28;20072;-71
2023/10/09 01:52:07;;;;;;;0.15;0.00;;;;;;;4.94;63.66;101578.00;5049129;28;20045;-72
2023/10/09 01:54:37;;;;;;;0.60;0.00;;;;;;;4.93;63.91;101578.84;5051697;28;20060;-71
2023/10/09 01:57:12;;;;;;;0.10;0.00;;;;;;;4.90;63.69;101583.97;5052420;28;20041;-71
2023/10/09 01:59:43;;;;;;;3.22;0.00;;;;;;;4.90;63.90;101586.56;5052580;28;20049;-71
2023/10/09 02:02:25;;;;;;;0.50;0.10;;;;;;;4.88;63.99;101585.66;5049463;28;20048;-71
2023/10/09 02:04:53;;;;;;;0.65;0.08;;;;;;;4.83;63.86;101582.97;5042272;28;20175;-71
2023/10/09 02:07:28;;;;;;;0.05;0.00;;;;;;;4.80;64.20;101576.88;5050033;28;20047;-70
2023/10/09 02:09:57;;;;;;;0.20;0.20;;;;;;;4.83;64.15;101576.94;5046044;28;20048;-72
2023/10/09 02:12:24;;;;;;;0.75;0.00;;;;;;;4.80;64.27;101576.88;5046455;28;20305;-71
2023/10/09 02:14:55;;;;;;;0.08;0.00;;;;;;;4.76;64.37;101568.19;5049879;28;20056;-71
2023/10/09 02:17:28;;;;;;;2.95;0.00;;;;;;;4.77;64.35;101563.88;5045777;28;20057;-71
2023/10/09 02:19:55;;;;;;;0.22;0.05;;;;;;;4.76;64.39;101564.75;5047438;28;20409;-70
2023/10/09 02:22:26;;;;;;;0.10;0.03;;;;;;;4.72;64.33;101563.78;5049734;28;20112;-71
2023/10/09 02:24:58;;;;;;;0.55;0.00;;;;;;;4.66;64.78;101554.19;5047192;28;20045;-70
2023/10/09 02:30:26;;;;;;;0.43;0.03;;;;;;;4.65;64.62;101552.47;5049345;28;20055;-70
2023/10/09 02:33:03;;;;;;;0.77;0.10;;;;;;;4.64;64.43;101550.75;5053770;28;20072;-70
2023/10/09 02:35:38;;;;;;;2.25;0.00;;;;;;;4.63;64.55;101548.09;5044229;28;20052;-71
2023/10/09 02:38:09;;;;;;;1.35;0.13;;;;;;;4.58;64.85;101544.56;5050697;28;20048;-70
2023/10/09 02:41:00;;;;;;;0.55;0.10;;;;;;;4.60;64.80;101548.91;5044298;28;20048;-70
2023/10/09 02:43:33;;;;;;;1.55;0.10;;;;;;;4.57;64.98;101554.03;5051009;28;20444;-70
2023/10/09 02:46:12;;;;;;;0.17;0.10;;;;;;;4.56;64.97;101554.91;5052919;28;20126;-70
2023/10/09 02:48:42;;;;;;;0.40;0.00;;;;;;;4.54;65.20;101550.53;5053447;28;20041;-77
2023/10/09 02:51:15;;;;;;;0.80;0.80;;;;;;;4.53;65.22;101554.84;5059915;28;20575;-77
2023/10/09 02:53:42;;;;;;;0.20;0.10;;;;;;;4.50;65.10;101552.19;5048971;28;20049;-77
2023/10/09 02:56:12;;;;;;;0.65;0.00;;;;;;;4.49;65.33;101550.44;5063602;28;20044;-77
2023/10/09 02:58:42;;;;;;;0.65;0.08;;;;;;;4.49;65.39;101550.44;5057050;28;20090;-78
2023/10/09 03:01:13;;;;;;;0.22;0.08;;;;;;;4.48;65.47;101543.53;5058249;28;20059;-76
2023/10/09 03:03:45;;;;;;;0.13;0.00;;;;;;;4.46;65.44;101550.38;5056915;28;20548;-77
2023/10/09 03:06:12;;;;;;;0.10;0.05;;;;;;;4.43;65.51;101539.97;5054891;28;20052;-77
2023/10/09 03:08:40;;;;;;;0.47;0.00;;;;;;;4.42;65.52;101533.06;5055024;28;20049;-84
2023/10/09 03:11:13;;;;;;;0.95;0.10;;;;;;;4.41;65.45;101542.56;5054640;28;20501;-85
2023/10/09 03:13:45;;;;;;;0.73;0.00;;;;;;;4.40;65.68;101534.75;5066814;28;20792;-84
2023/10/09 03:16:19;;;;;;;0.40;0.00;;;;;;;4.39;65.70;101533.88;5060570;28;20063;-84
2023/10/09 03:18:48;;;;;;;3.00;0.10;;;;;;;4.38;65.91;101531.25;5059009;28;20868;-84
2023/10/09 03:21:17;;;;;;;0.17;0.10;;;;;;;4.37;65.98;101532.09;5065060;28;20047;-83
2023/10/09 03:23:44;;;;;;;0.28;0.17;;;;;;;4.34;65.88;101519.13;5061407;28;20079;-85
2023/10/09 03:26:12;;;;;;;0.10;0.00;;;;;;;4.33;66.10;101523.41;5055327;28;20053;-85
2023/10/09 03:28:38;;;;;;;0.10;0.10;;;;;;;4.32;66.06;101529.41;5063156;28;20127;-84
2023/10/09 03:31:07;;;;;;;0.15;0.08;;;;;;;4.31;66.02;101524.22;5057240;28;20046;-84
2023/10/09 03:33:34;;;;;;;0.05;0.00;;;;;;;4.29;66.05;101521.59;5065675;28;20068;-84
2023/10/09 03:36:01;;;;;;;1.20;0.08;;;;;;;4.29;66.26;101521.59;5056051;28;20381;-83
2023/10/09 03:38:34;;;;;;;0.20;0.10;;;;;;;4.28;66.45;101517.28;5058934;28;20056;-84
2023/10/09 03:41:05;;;;;;;2.85;0.20;;;;;;;4.27;66.39;101512.97;5061020;28;20052;-84
2023/10/09 03:43:37;;;;;;;0.28;0.13;;;;;;;4.23;66.30;101506.84;5056211;28;20051;-83
2023/10/09 03:46:05;;;;;;;1.98;0.05;;;;;;;4.25;66.38;101507.75;5062464;28;20048;-85
2023/10/09 03:48:36;;;;;;;0.38;0.10;;;;;;;4.24;66.47;101513.78;5058907;28;20055;-84
2023/10/09 03:51:09;;;;;;;1.80;0.00;;;;;;;4.23;66.41;101513.72;5061779;28;20044;-84
2023/10/09 03:53:38;;;;;;;2.97;0.10;;;;;;;4.21;66.51;101512.81;5063452;28;20136;-84
2023/10/09 03:56:11;;;;;;;0.03;0.00;;;;;;;4.21;66.44;101513.72;5060526;28;20067;-85
2023/10/09 03:58:39;;;;;;;0.65;0.00;;;;;;;4.17;66.58;101506.72;5056055;28;20045;-84
2023/10/09 04:01:11;;;;;;;0.10;0.10;;;;;;;4.18;66.67;101508.47;5057576;28;20052;-85
2023/10/09 04:03:40;;;;;;;0.05;0.00;;;;;;;4.18;66.65;101510.19;5059725;28;20087;-84
2023/10/09 04:06:09;;;;;;;0.40;0.08;;;;;;;4.17;66.89;101500.69;5061984;28;20143;-84
2023/10/09 04:08:39;;;;;;;0.35;0.10;;;;;;;4.17;66.70;101501.56;5057565;28;20041;-84
2023/10/09 04:11:16;;;;;;;0.75;0.05;;;;;;;4.16;66.57;101493.78;5059074;28;20049;-84
2023/10/09 04:13:45;;;;;;;0.30;0.10;;;;;;;4.14;66.80;101490.28;5061872;28;20048;-85
2023/10/09 04:16:33;;;;;;;0.20;0.00;;;;;;;4.14;66.85;101492.88;5059075;28;20048;-84
2023/10/09 04:19:10;;;;;;;0.68;0.47;;;;;;;4.13;66.99;101494.59;5058508;28;20040;-84
2023/10/09 04:21:37;;;;;;;1.63;0.05;;;;;;;4.12;66.97;101489.38;5055087;28;20048;-84
2023/10/09 04:24:22;;;;;;;0.60;0.10;;;;;;;4.08;67.09;101480.69;5059679;28;20037;-84
2023/10/09 04:26:55;;;;;;;0.22;0.00;;;;;;;4.11;67.07;101493.69;5059555;28;20045;-84
2023/10/09 04:29:38;;;;;;;0.68;0.08;;;;;;;4.09;67.26;101487.59;5061876;28;20059;-84
2023/10/09 04:32:15;;;;;;;0.55;0.08;;;;;;;4.03;67.09;101475.44;5056239;28;20481;-84
2023/10/09 04:34:49;;;;;;;0.77;0.00;;;;;;;4.09;66.89;101484.16;5061388;28;20090;-84
2023/10/09 04:37:36;;;;;;;2.15;0.20;;;;;;;4.09;67.12;101489.31;5059326;28;20504;-83
2023/10/09 04:40:11;;;;;;;0.35;0.10;;;;;;;4.08;67.04;101496.22;5059433;28;20040;-82
2023/10/09 04:42:37;;;;;;;;;;;;;;;4.06;66.61;101493.59;5056353;28;20055;-85
2023/10/09 04:48:06;;;;;;;2.90;0.05;;;;;;;4.03;66.98;101487.47;5063340;28;20117;-83
2023/10/09 04:50:45;;;;;;;0.10;0.00;;;;;;;4.03;67.01;101492.66;5060326;28;20052;-81
2023/10/09 04:53:25;;;;;;;0.57;0.00;;;;;;;4.02;67.03;101490.91;5060540;28;20140;-82
2023/10/09 04:55:55;;;;;;;2.40;0.10;;;;;;;4.01;67.15;101489.16;5065210;28;20052;-83
2023/10/09 04:58:25;;;;;;;0.00;0.00;;;;;;;4.00;67.00;101479.66;5058785;28;20838;-84
2023/10/09 05:01:04;;;;;;;0.17;0.10;;;;;;;3.99;67.35;101475.34;5058250;28;20102;-83
2023/10/09 05:03:43;;;;;;;0.10;0.10;;;;;;;3.98;67.29;101478.75;5059969;28;20049;-83
2023/10/09 05:06:32;;;;;;;0.10;0.00;;;;;;;3.98;67.25;101471.00;5060243;28;20045;-84
2023/10/09 05:09:07;;;;;;;0.10;0.00;;;;;;;3.97;67.24;101474.44;5064147;28;20059;-84
2023/10/09 05:11:53;;;;;;;0.20;0.10;;;;;;;3.97;67.37;101479.63;5058653;28;20043;-84
2023/10/09 05:14:26;;;;;;;3.83;0.05;;;;;;;3.96;67.18;101477.88;5059599;28;20717;-84
2023/10/09 05:17:01;;;;;;;0.35;0.10;;;;;;;3.93;67.23;101475.25;5059985;28;20075;-84
2023/10/09 05:19:41;;;;;;;1.42;0.10;;;;;;;3.93;67.29;101476.09;5063804;28;20052;-83
2023/10/09 05:22:16;;;;;;;1.08;0.10;;;;;;;3.91;67.40;101475.19;5064730;28;20052;-83
2023/10/09 05:24:46;;;;;;;;;;;;;;;3.92;66.86;101476.06;5062954;28;20040;-84
2023/10/09 05:27:24;;;;;;;5.78;0.10;;;;;;;3.90;67.01;101472.56;5058311;28;19932;-82
2023/10/09 05:29:59;;;;;;;2.80;0.00;;;;;;;3.89;67.33;101468.25;5060133;28;20477;-78
2023/10/09 05:32:29;;;;;;;2.70;0.10;;;;;;;3.88;67.22;101464.78;5059217;28;20045;-81
2023/10/09 05:35:15;;;;;;;1.40;0.10;;;;;;;3.88;67.45;101472.56;5058583;28;20044;-80
2023/10/09 05:37:51;;;;;;;0.75;0.20;;;;;;;3.87;67.69;101469.91;5057430;28;20055;-81
2023/10/09 05:40:23;;;;;;;0.20;0.05;;;;;;;3.87;67.19;101475.09;5059047;28;20045;-81
2023/10/09 05:42:59;;;;;;;0.10;0.05;;;;;;;3.87;67.54;101475.09;5063396;28;20417;-81
2023/10/09 05:51:19;;;;;;;0.13;0.10;;;;;;;3.84;67.45;101473.31;5062488;28;20079;-89
2023/10/09 05:54:11;;;;;;;0.10;0.08;;;;;;;3.83;67.60;101469.84;5065558;28;20503;-80
2023/10/09 06:04:59;;;;;;;0.40;0.10;;;;;;;3.81;67.72;101474.16;5058873;28;20037;-86
2023/10/09 06:07:49;;;;;;;0.68;0.10;;;;;;;3.78;67.71;101473.19;5056921;28;20053;-77
2023/10/09 06:10:32;;;;;;;2.95;0.20;;;;;;;3.81;67.63;101481.00;5053129;28;20056;-78
2023/10/09 06:13:06;;;;;;;0.43;0.30;;;;;;;3.74;68.08;101468.81;5058414;28;20052;-79
2023/10/09 06:16:09;;;;;;;0.30;0.10;;;;;;;3.81;67.95;101489.66;5060993;28;20083;-91
2023/10/09 06:18:35;;;;;;;1.00;0.10;;;;;;;3.81;68.02;101481.91;5056040;28;20448;-84
2023/10/09 06:21:09;;;;;;;0.65;0.10;;;;;;;3.81;67.98;101487.06;5059455;28;20049;-79
2023/10/09 06:24:08;;;;;;;1.73;0.20;;;;;;;3.76;68.19;101470.59;5053656;28;20109;-76
2023/10/09 06:26:37;;;;;;;0.95;0.10;;;;;;;3.83;68.06;101476.75;5055473;28;20050;-78
2023/10/09 06:32:16;;;;;;;0.77;0.10;;;;;;;3.83;68.24;101469.84;5041420;28;20711;-74
2023/10/09 06:34:44;;;;;;;2.97;0.27;;;;;;;3.86;68.48;101468.19;5048630;28;20061;-74
2023/10/09 06:37:34;;;;;;;2.47;0.85;;;;;;;3.88;68.51;101466.50;5049979;28;20067;-74
2023/10/09 06:42:51;;;;;;;1.08;0.40;;;;;;;3.91;68.65;101476.91;5052977;28;20064;-75
2023/10/09 06:45:18;;;;;;;2.28;0.20;;;;;;;3.93;68.89;101465.75;5051182;28;20973;-75
2023/10/09 06:47:55;;;;;;;1.45;0.30;;;;;;;3.95;68.84;101468.38;5048868;28;20041;-74
2023/10/09 06:50:25;;;;;;;5.78;0.20;;;;;;;3.97;68.93;101477.91;5053024;28;20489;-77
2023/10/09 06:53:18;;;;;;;2.95;0.20;;;;;;;3.99;69.08;101473.63;5050800;28;20056;-76
2023/10/09 06:55:49;;;;;;;0.80;0.20;;;;;;;4.03;69.26;101477.16;5051163;28;20231;-75
2023/10/09 06:58:23;;;;;;;2.65;0.10;;;;;;;4.06;69.11;101482.38;5046111;28;20143;-74
2023/10/09 07:01:19;;;;;;;0.55;0.20;;;;;;;4.10;69.48;101479.03;5048875;28;20052;-74
2023/10/09 07:03:52;;;;;;;5.55;0.20;;;;;;;4.10;69.50;101468.69;5053350;28;20091;-78
2023/10/09 07:06:24;;;;;;;1.27;0.10;;;;;;;4.11;69.37;101467.81;5056026;28;20608;-86
2023/10/09 07:09:15;;;;;;;3.35;0.38;;;;;;;4.17;69.26;101465.34;5056507;28;20087;-79
2023/10/09 07:12:00;;;;;;;3.53;0.10;;;;;;;4.24;69.69;101471.50;5058132;28;20787;-81
2023/10/09 07:17:21;;;;;;;1.73;0.28;;;;;;;4.35;69.78;101471.69;5055277;28;20521;-77
2023/10/09 07:20:08;;;;;;;0.43;0.10;;;;;;;4.39;69.62;101469.22;5058399;28;20048;-76
2023/10/09 07:22:52;;;;;;;2.63;0.13;;;;;;;4.47;69.68;101480.56;5051586;28;20049;-76
2023/10/09 07:25:40;;;;;;;1.52;0.00;;;;;;;4.56;69.64;101473.81;5054761;28;20036;-78
2023/10/09 07:28:29;;;;;;;3.63;0.13;;;;;;;4.63;69.81;101478.25;5058843;28;20509;-79
2023/10/09 07:31:02;;;;;;;0.30;0.10;;;;;;;4.74;69.76;101476.69;5055132;28;20051;-80
2023/10/09 07:33:51;;;;;;;0.25;0.00;;;;;;;4.82;69.48;101472.53;5057383;28;20105;-78
2023/10/09 07:36:29;;;;;;;4.72;0.25;;;;;;;4.93;69.56;101478.75;5056722;28;20501;-80
2023/10/09 07:38:59;;;;;;;1.13;0.10;;;;;;;5.04;69.66;101484.09;5050202;28;20045;-77
2023/10/09 07:41:44;;;;;;;0.15;0.10;;;;;;;5.16;69.33;101478.25;5048404;28;20043;-74
2023/10/09 07:44:34;;;;;;;2.28;0.10;;;;;;;5.26;69.12;101474.91;5047516;28;20043;-73
2023/10/09 07:47:22;;;;;;;0.00;0.00;;;;;;;5.39;68.82;101470.78;5046530;28;20168;-74
2023/10/09 07:49:53;;;;;;;0.85;0.00;;;;;;;5.51;68.85;101470.09;5046225;28;20040;-76
2023/10/09 07:52:22;;;;;;;0.17;0.10;;;;;;;5.61;68.61;101462.47;5044815;28;20040;-75
2023/10/09 07:55:01;;;;;;;0.63;0.00;;;;;;;5.73;68.43;101471.25;5047220;28;20049;-75
2023/10/09 07:57:38;;;;;;;0.43;0.00;;;;;;;5.85;68.14;101468.78;5049684;28;20084;-75
2023/10/09 08:00:35;;;;;;;0.10;0.00;;;;;;;5.95;67.92;101462.00;5045694;28;20135;-74
2023/10/09 08:03:03;;;;;;;0.52;0.10;;;;;;;6.07;67.67;101454.41;5047874;28;20530;-73
2023/10/09 08:05:34;;;;;;;0.00;0.00;;;;;;;6.16;67.53;101451.03;5050047;28;20044;-74
2023/10/09 08:16:20;;;;;;;0.20;0.03;;;;;;;6.52;66.91;101448.78;5046386;28;20045;-76
2023/10/09 08:18:51;;;;;;;0.52;0.10;;;;;;;6.61;66.39;101452.31;5059812;28;20041;-75
2023/10/09 08:21:19;;;;;;;0.45;0.45;;;;;;;6.69;66.22;101458.47;5058116;28;20044;-74
2023/10/09 08:23:49;;;;;;;0.93;0.00;;;;;;;6.76;65.59;101455.03;5052726;28;20706;-74
2023/10/09 08:26:28;;;;;;;0.25;0.10;;;;;;;6.83;65.87;101451.66;5057122;28;20053;-74
2023/10/09 08:29:15;;;;;;;0.20;0.10;;;;;;;6.90;65.39;101458.63;5050618;28;20118;-75
2023/10/09 08:31:56;;;;;;;0.13;0.08;;;;;;;6.97;65.15;101451.72;5057849;28;20052;-75
2023/10/09 08:34:25;;;;;;;0.10;0.00;;;;;;;7.05;65.19;101452.66;5052808;28;20057;-74
2023/10/09 08:36:55;;;;;;;1.30;0.10;;;;;;;7.11;64.51;101451.81;5052593;28;20058;-74
2023/10/09 08:39:33;;;;;;;0.10;0.00;;;;;;;7.18;64.30;101453.63;5055358;28;20051;-75
2023/10/09 08:42:01;;;;;;;0.10;0.00;;;;;;;7.24;64.40;101453.66;5047697;28;20086;-74
2023/10/09 08:44:31;;;;;;;0.10;0.00;;;;;;;7.29;64.12;101446.75;5058565;28;20044;-77
2023/10/09 08:46:58;;;;;;;3.03;0.05;;;;;;;7.33;63.71;101450.25;5054281;28;20053;-75
2023/10/09 08:49:27;;;;;;;1.77;0.10;;;;;;;7.40;63.14;101452.88;5054591;28;20527;-69
2023/10/09 08:52:02;;;;;;;0.20;0.10;;;;;;;7.44;63.35;101457.22;5047817;28;20059;-70
2023/10/09 08:54:33;;;;;;;1.40;0.00;;;;;;;7.49;63.03;101459.00;5051978;28;20107;-70
2023/10/09 08:57:01;;;;;;;0.30;0.00;;;;;;;7.54;61.72;101446.88;5046946;28;20572;-72
2023/10/09 08:59:27;;;;;;;0.15;0.05;;;;;;;7.58;62.04;101444.31;5048310;28;20052;-70
2023/10/09 09:01:59;;;;;;;0.55;0.10;;;;;;;7.60;61.91;101444.31;5046642;28;20041;-70
2023/10/09 09:04:38;;;;;;;0.10;0.00;;;;;;;7.67;61.11;101448.69;5051410;28;20129;-70
2023/10/09 09:07:05;;;;;;;0.55;0.00;;;;;;;7.72;61.01;101451.31;5049967;28;20059;-73
2023/10/09 09:09:33;;;;;;;1.35;0.10;;;;;;;7.74;61.35;101449.56;5052289;28;20052;-74
2023/10/09 09:12:01;;;;;;;0.20;0.00;;;;;;;7.75;60.96;101443.50;5055026;28;20584;-75
2023/10/09 09:14:38;;;;;;;0.08;0.00;;;;;;;7.79;60.57;101443.50;5055507;28;20041;-74
2023/10/09 09:17:09;;;;;;;0.45;0.00;;;;;;;7.80;60.62;101450.47;5054421;28;20090;-75
2023/10/09 09:19:39;;;;;;;0.05;0.00;;;;;;;7.80;60.11;101449.63;5053336;28;20071;-77
2023/10/09 09:22:12;;;;;;;0.15;0.00;;;;;;;7.84;60.19;101447.00;5058495;28;20049;-76
2023/10/09 09:24:45;;;;;;;0.20;0.17;;;;;;;7.92;60.02;101447.03;5054384;28;20133;-75
2023/10/09 09:27:18;;;;;;;1.05;0.00;;;;;;;8.02;60.09;101450.53;5053054;28;20052;-76
2023/10/09 09:29:52;;;;;;;0.10;0.00;;;;;;;8.15;59.62;101449.72;5058195;28;20049;-75
2023/10/09 09:32:29;;;;;;;0.28;0.00;;;;;;;8.27;60.04;101446.25;5058251;28;20533;-78
2023/10/09 09:35:00;;;;;;;0.47;0.00;;;;;;;8.41;59.70;101439.38;5061529;28;20049;-74
2023/10/09 09:37:30;;;;;;;1.55;0.10;;;;;;;8.53;58.84;101441.09;5055900;28;20048;-75
2023/10/09 09:40:00;;;;;;;0.10;0.00;;;;;;;8.59;58.82;101442.84;5052372;28;20047;-74
2023/10/09 09:42:31;;;;;;;0.85;0.08;;;;;;;8.59;58.29;101435.91;5046811;28;20128;-76
2023/10/09 09:45:01;;;;;;;0.30;0.00;;;;;;;8.61;58.80;101428.97;5058149;28;20816;-76
2023/10/09 09:47:29;;;;;;;0.20;0.10;;;;;;;8.63;58.72;101437.66;5051962;28;20419;-73
2023/10/09 09:50:05;;;;;;;0.00;0.00;;;;;;;8.64;58.59;101435.91;5051228;28;20052;-74
2023/10/09 09:52:38;;;;;;;;;;;;;;;8.63;59.05;101437.66;5051839;28;20048;-73
2023/10/09 09:55:14;;;;;;;1.30;0.10;;;;;;;8.63;58.54;101431.59;5050297;28;20300;-74
2023/10/09 09:57:45;;;;;;;0.50;0.15;;;;;;;8.62;58.66;101433.28;5050837;28;20712;-75
2023/10/09 10:00:28;;;;;;;0.75;0.10;;;;;;;8.63;58.43;101431.59;5048319;28;20075;-73
2023/10/09 10:02:58;;;;;;;0.20;0.00;;;;;;;8.65;58.00;101432.44;5048323;28;20120;-73
2023/10/09 10:05:29;;;;;;;0.68;0.03;;;;;;;8.66;58.33;101429.84;5052855;28;20044;-74
2023/10/09 10:07:58;;;;;;;2.85;0.10;;;;;;;8.68;58.02;101425.50;5048629;28;20052;-74
2023/10/09 10:10:47;;;;;;;1.25;0.00;;;;;;;8.69;58.28;101414.22;5047764;28;20498;-74
2023/10/09 10:13:21;;;;;;;0.10;0.00;;;;;;;8.71;57.96;101417.69;5053138;28;20151;-74
2023/10/09 10:16:13;;;;;;;0.28;0.13;;;;;;;8.74;57.46;101422.88;5048932;28;20708;-74
2023/10/09 10:18:59;;;;;;;0.00;0.00;;;;;;;8.74;57.42;101422.88;5055518;28;20520;-76
2023/10/09 10:21:37;;;;;;;1.10;0.00;;;;;;;8.74;57.41;101416.81;5049193;28;20137;-76
2023/10/09 10:24:06;;;;;;;0.30;0.10;;;;;;;8.74;57.07;101417.69;5046486;28;20056;-76
2023/10/09 10:26:34;;;;;;;1.85;0.00;;;;;;;8.73;57.24;101410.72;5049708;28;20134;-75
2023/10/09 10:29:26;;;;;;;0.22;0.10;;;;;;;8.76;57.08;101413.31;5051186;28;20041;-76
2023/10/09 10:31:54;;;;;;;0.65;0.00;;;;;;;8.75;57.12;101409.00;5053458;28;20048;-77
2023/10/09 10:34:23;;;;;;;0.10;0.00;;;;;;;8.78;56.62;101415.94;5053353;28;20060;-76
2023/10/09 10:36:58;;;;;;;0.20;0.00;;;;;;;8.78;56.48;101403.78;5053941;28;20048;-80
2023/10/09 10:39:42;;;;;;;0.13;0.00;;;;;;;8.77;56.74;101403.78;5054592;28;20048;-78
2023/10/09 10:42:15;;;;;;;0.70;0.10;;;;;;;8.76;56.83;101395.09;5051430;28;20724;-76
2023/10/09 10:44:46;;;;;;;2.15;0.10;;;;;;;8.80;56.46;101395.97;5048491;28;20074;-74
2023/10/09 10:47:24;;;;;;;1.35;0.00;;;;;;;8.81;56.75;101399.44;5053557;28;20044;-76
2023/10/09 10:49:58;;;;;;;1.20;0.00;;;;;;;8.80;55.70;101410.75;5056103;28;20045;-77
2023/10/09 10:52:41;;;;;;;0.50;0.10;;;;;;;8.76;55.96;101389.88;5058106;28;20049;-75
2023/10/09 10:55:31;;;;;;;1.17;0.00;;;;;;;8.81;55.72;101396.84;5048612;28;20056;-75
2023/10/09 10:58:09;;;;;;;0.10;0.03;;;;;;;8.80;55.83;101405.53;5062061;28;20049;-78
2023/10/09 11:03:29;;;;;;;1.08;0.03;;;;;;;8.82;55.87;101403.75;5052545;28;20251;-81
2023/10/09 11:05:56;;;;;;;4.07;0.08;;;;;;;8.78;55.53;101393.34;5053192;28;20072;-79
2023/10/09 11:08:32;;;;;;;0.40;0.10;;;;;;;8.82;55.24;101394.22;5048036;28;20049;-79
2023/10/09 11:11:15;;;;;;;0.08;0.00;;;;;;;8.81;55.17;101392.47;5053644;28;20044;-76
2023/10/09 11:13:54;;;;;;;0.10;0.00;;;;;;;8.83;55.24;101402.91;5054071;28;20062;-77
2023/10/09 11:16:28;;;;;;;1.00;0.10;;;;;;;8.83;55.36;101405.53;5055404;28;20048;-77
2023/10/09 11:19:12;;;;;;;0.00;0.00;;;;;;;8.83;55.21;101401.19;5054961;28;20501;-77
2023/10/09 11:21:42;;;;;;;0.43;0.00;;;;;;;8.83;54.74;101400.31;5052674;28;20053;-76
2023/10/09 11:24:24;;;;;;;0.10;0.00;;;;;;;8.85;55.07;101411.56;5048875;28;20053;-75
2023/10/09 11:26:55;;;;;;;0.10;0.00;;;;;;;8.85;55.25;101408.97;5054365;28;20051;-75
2023/10/09 11:29:52;;;;;;;0.10;0.00;;;;;;;8.85;54.93;101409.88;5045944;28;20103;-78
2023/10/09 11:32:19;;;;;;;0.00;0.00;;;;;;;8.86;54.80;101410.72;5050568;28;20053;-80
2023/10/09 11:34:51;;;;;;;0.45;0.10;;;;;;;8.88;54.53;101402.03;5048743;28;20528;-74
2023/10/09 11:37:38;;;;;;;2.63;0.10;;;;;;;8.91;54.60;101409.00;5050924;28;20055;-77
2023/10/09 11:40:23;;;;;;;1.20;0.10;;;;;;;8.88;55.09;101404.66;5055366;28;20067;-78
2023/10/09 11:42:49;;;;;;;0.55;0.10;;;;;;;8.92;55.18;101408.09;5050298;28;20680;-74
2023/10/09 11:45:23;;;;;;;0.63;0.00;;;;;;;8.92;54.59;101410.72;5045987;28;20045;-75
2023/10/09 11:48:00;;;;;;;2.38;0.00;;;;;;;8.90;54.89;101399.41;5052968;28;20057;-76
2023/10/09 11:50:50;;;;;;;0.32;0.32;;;;;;;8.95;54.87;101411.56;5048059;28;20148;-73
2023/10/09 11:53:33;;;;;;;0.40;0.05;;;;;;;8.95;54.49;101416.78;5046991;28;20081;-73
2023/10/09 11:56:00;;;;;;;0.00;0.00;;;;;;;8.95;54.59;101415.91;5047757;28;20573;-73
2023/10/09 11:58:27;;;;;;;0.10;0.00;;;;;;;8.91;54.53;101398.56;5039830;28;20051;-73
2023/10/09 12:00:59;;;;;;;0.30;0.00;;;;;;;8.96;54.32;101417.66;5048938;28;20044;-73
2023/10/09 12:03:29;;;;;;;1.00;0.10;;;;;;;8.96;54.01;101408.09;5043874;28;21302;-73
2023/10/09 12:06:04;;;;;;;0.65;0.00;;;;;;;8.99;54.19;101420.25;5051552;28;20049;-73
2023/10/09 12:08:31;;;;;;;1.65;0.00;;;;;;;8.99;54.08;101420.25;5042622;28;20165;-73
2023/10/09 12:10:59;;;;;;;0.75;0.10;;;;;;;8.98;54.41;101421.97;5050839;28;20077;-72
2023/10/09 12:13:28;;;;;;;0.10;0.10;;;;;;;8.99;54.14;101421.13;5046061;28;20048;-73
2023/10/09 12:15:57;;;;;;;0.47;0.00;;;;;;;9.00;54.24;101416.78;5050345;28;20143;-71
2023/10/09 12:18:24;;;;;;;0.10;0.00;;;;;;;8.99;54.43;101408.09;5050255;28;20052;-75
2023/10/09 12:20:52;;;;;;;0.20;0.00;;;;;;;9.00;54.46;101414.19;5048751;28;20052;-72
2023/10/09 12:23:20;;;;;;;0.15;0.00;;;;;;;9.01;54.76;101421.97;5048636;28;20037;-72
2023/10/09 12:25:50;;;;;;;2.08;0.00;;;;;;;9.01;54.69;101424.59;5045502;28;20449;-72
2023/10/09 12:28:20;;;;;;;2.25;0.45;;;;;;;9.04;54.49;101410.69;5048962;28;20429;-75
2023/10/09 12:30:50;;;;;;;0.00;0.00;;;;;;;9.03;54.26;101413.31;5044578;28;20555;-75
2023/10/09 12:33:18;;;;;;;0.20;0.00;;;;;;;9.04;54.60;101413.28;5052019;28;20064;-75
2023/10/09 12:35:45;;;;;;;0.45;0.00;;;;;;;9.04;53.92;101413.28;5047898;28;20123;-75
2023/10/09 12:38:18;;;;;;;2.08;0.00;;;;;;;9.05;53.94;101420.25;5057730;28;20098;-73
2023/10/09 12:40:50;;;;;;;0.10;0.00;;;;;;;9.04;53.98;101418.50;5047700;28;20056;-75
2023/10/09 12:43:19;;;;;;;0.00;0.00;;;;;;;9.03;53.75;101414.16;5055437;28;20599;-73
2023/10/09 12:45:48;;;;;;;0.10;0.00;;;;;;;9.04;53.97;101407.22;5045309;28;20045;-73
2023/10/09 12:48:15;;;;;;;0.20;0.20;;;;;;;9.04;53.95;101415.91;5043841;28;20522;-73
2023/10/09 12:50:44;;;;;;;0.00;0.00;;;;;;;9.04;53.67;101415.91;5044797;28;20045;-73